createdAt,value
2017-11-08T00:00:37.727Z,94.70
2017-11-08T00:03:05.246Z,94.60
2017-11-08T00:05:32.765Z,94.60
2017-11-08T00:08:02.257Z,94.40
2017-11-08T00:10:29.784Z,94.40
2017-11-08T00:12:57.721Z,94.60
2017-11-08T00:15:25.249Z,94.60
2017-11-08T00:17:54.597Z,94.70
2017-11-08T00:20:22.124Z,94.50
2017-11-08T00:22:50.072Z,94.30
2017-11-08T00:25:17.621Z,94.30
2017-11-08T00:27:45.163Z,94.40
2017-11-08T00:30:12.698Z,94.30
2017-11-08T00:32:40.255Z,94.30
2017-11-08T00:35:07.808Z,94.40
2017-11-08T00:37:35.388Z,94.40
2017-11-08T00:40:02.938Z,94.30
2017-11-08T00:42:30.464Z,93.90
2017-11-08T00:44:58.436Z,93.90
2017-11-08T00:47:25.964Z,93.90
2017-11-08T00:49:53.509Z,94.30
2017-11-08T00:52:21.033Z,94.40
2017-11-08T00:54:48.581Z,94.30
2017-11-08T01:00:15.921Z,94.50
2017-11-08T01:02:43.524Z,94.50
2017-11-08T01:05:11.096Z,94.70
2017-11-08T01:07:38.662Z,94.60
2017-11-08T01:10:06.216Z,94.60
2017-11-08T01:12:33.764Z,94.60
2017-11-08T01:15:01.395Z,94.60
2017-11-08T01:17:28.961Z,94.60
2017-11-08T01:19:56.520Z,94.60
2017-11-08T01:22:24.100Z,94.70
2017-11-08T01:24:51.653Z,94.60
2017-11-08T01:27:19.223Z,94.70
2017-11-08T01:29:48.083Z,94.60
2017-11-08T01:32:15.689Z,94.70
2017-11-08T01:34:43.280Z,94.70
2017-11-08T01:40:10.194Z,94.80
2017-11-08T01:42:37.744Z,94.80
2017-11-08T01:45:08.093Z,94.80
2017-11-08T01:47:35.625Z,94.90
2017-11-08T01:50:03.163Z,94.70
2017-11-08T01:52:30.710Z,94.60
2017-11-08T01:54:58.233Z,94.60
2017-11-08T01:57:25.897Z,94.50
2017-11-08T01:59:54.056Z,94.50
2017-11-08T02:02:21.607Z,94.50
2017-11-08T02:04:49.540Z,94.00
2017-11-08T02:07:17.100Z,94.00
2017-11-08T02:09:44.670Z,93.80
2017-11-08T02:12:12.197Z,94.00
2017-11-08T02:14:40.135Z,93.90
2017-11-08T02:17:07.657Z,93.90
2017-11-08T02:19:35.192Z,93.90
2017-11-08T02:22:02.713Z,93.90
2017-11-08T02:24:30.281Z,93.80
2017-11-08T02:27:03.450Z,93.60
2017-11-08T02:29:31.016Z,93.50
2017-11-08T02:31:58.552Z,93.30
2017-11-08T02:34:26.090Z,93.60
2017-11-08T02:36:53.624Z,93.70
2017-11-08T02:39:21.155Z,93.60
2017-11-08T02:41:48.694Z,93.20
2017-11-08T02:44:16.206Z,93.10
2017-11-08T02:46:43.756Z,93.10
2017-11-08T02:49:11.290Z,93.20
2017-11-08T02:51:38.852Z,93.10
2017-11-08T02:54:09.241Z,93.00
2017-11-08T02:56:36.786Z,92.80
2017-11-08T02:59:04.716Z,92.80
2017-11-08T03:01:32.261Z,92.80
2017-11-08T03:04:02.708Z,93.10
2017-11-08T03:06:30.272Z,93.40
2017-11-08T03:08:57.832Z,93.70
2017-11-08T03:11:25.383Z,93.50
2017-11-08T03:13:52.908Z,93.40
2017-11-08T03:16:20.431Z,93.50
2017-11-08T03:18:48.364Z,93.80
2017-11-08T03:21:15.890Z,93.80
2017-11-08T03:23:43.430Z,93.80
2017-11-08T03:26:10.959Z,93.80
2017-11-08T03:28:38.517Z,93.90
2017-11-08T03:31:06.034Z,94.00
2017-11-08T03:33:33.567Z,93.80
2017-11-08T03:36:01.112Z,93.70
2017-11-08T03:38:29.034Z,94.00
2017-11-08T03:40:56.573Z,94.00
2017-11-08T03:43:24.516Z,94.20
2017-11-08T03:45:52.061Z,94.20
2017-11-08T03:48:19.593Z,94.10
2017-11-08T03:50:47.532Z,93.90
2017-11-08T03:53:15.066Z,93.90
2017-11-08T03:55:42.624Z,93.90
2017-11-08T03:58:10.155Z,93.90
2017-11-08T04:00:37.673Z,94.00
2017-11-08T04:03:05.217Z,94.20
2017-11-08T04:05:32.741Z,94.30
2017-11-08T04:08:00.282Z,94.40
2017-11-08T04:10:28.198Z,94.30
2017-11-08T04:12:55.734Z,94.20
2017-11-08T04:15:23.647Z,94.70
2017-11-08T04:17:51.208Z,94.70
2017-11-08T04:20:18.726Z,94.60
2017-11-08T04:22:46.267Z,94.20
2017-11-08T04:25:13.805Z,94.10
2017-11-08T04:27:41.330Z,94.00
2017-11-08T04:30:08.871Z,94.00
2017-11-08T04:32:36.392Z,94.20
2017-11-08T04:35:03.940Z,94.00
2017-11-08T04:37:31.463Z,93.90
2017-11-08T04:39:59.015Z,94.00
2017-11-08T04:42:26.928Z,93.90
2017-11-08T04:44:54.448Z,93.90
2017-11-08T04:47:21.986Z,93.90
2017-11-08T04:49:49.523Z,94.00
2017-11-08T04:52:17.061Z,94.00
2017-11-08T04:54:44.595Z,93.90
2017-11-08T04:57:12.133Z,94.10
2017-11-08T04:59:39.653Z,94.00
2017-11-08T05:02:08.029Z,94.10
2017-11-08T05:04:35.547Z,94.20
2017-11-08T05:07:03.087Z,94.10
2017-11-08T05:09:30.605Z,94.10
2017-11-08T05:11:58.596Z,94.10
2017-11-08T05:14:26.117Z,94.10
2017-11-08T05:16:53.641Z,94.10
2017-11-08T05:19:21.180Z,94.00
2017-11-08T05:21:48.714Z,94.00
2017-11-08T05:24:16.248Z,94.10
2017-11-08T05:26:44.168Z,94.10
2017-11-08T05:29:11.791Z,94.10
2017-11-08T05:31:39.314Z,94.40
2017-11-08T05:34:06.853Z,94.40
2017-11-08T05:36:34.381Z,94.10
2017-11-08T05:39:01.918Z,94.10
2017-11-08T05:41:29.448Z,94.20
2017-11-08T05:43:57.412Z,94.30
2017-11-08T05:46:24.943Z,94.30
2017-11-08T05:48:52.473Z,94.40
2017-11-08T05:51:20.412Z,93.90
2017-11-08T05:53:47.948Z,93.90
2017-11-08T05:56:15.486Z,93.60
2017-11-08T05:58:43.017Z,93.60
2017-11-08T06:01:10.549Z,93.60
2017-11-08T06:03:38.072Z,93.70
2017-11-08T06:06:05.602Z,93.70
2017-11-08T06:08:33.126Z,93.80
2017-11-08T06:11:00.666Z,94.10
2017-11-08T06:13:28.193Z,94.50
2017-11-08T06:15:56.143Z,95.00
2017-11-08T06:18:23.672Z,95.00
2017-11-08T06:20:51.192Z,95.20
2017-11-08T06:23:18.730Z,95.50
2017-11-08T06:25:46.247Z,95.80
2017-11-08T06:28:14.186Z,96.10
2017-11-08T06:30:41.704Z,96.10
2017-11-08T06:33:09.629Z,96.50
2017-11-08T06:35:37.151Z,96.50
2017-11-08T06:38:04.697Z,96.60
2017-11-08T06:40:32.233Z,96.70
2017-11-08T06:42:59.769Z,96.60
2017-11-08T06:45:27.689Z,96.90
2017-11-08T06:47:55.225Z,96.90
2017-11-08T06:50:22.744Z,97.10
2017-11-08T06:52:52.137Z,97.30
2017-11-08T06:55:19.653Z,97.30
2017-11-08T06:57:47.199Z,97.30
2017-11-08T07:00:14.719Z,97.30
2017-11-08T07:02:42.267Z,97.30
2017-11-08T07:05:09.788Z,97.60
2017-11-08T07:07:37.341Z,97.90
2017-11-08T07:10:05.267Z,97.50
2017-11-08T07:12:32.804Z,97.50
2017-11-08T07:15:00.718Z,97.70
2017-11-08T07:17:31.205Z,97.70
2017-11-08T07:19:58.732Z,97.70
2017-11-08T07:22:26.254Z,97.80
2017-11-08T07:24:53.799Z,97.90
2017-11-08T07:27:21.329Z,97.90
2017-11-08T07:29:49.007Z,97.90
2017-11-08T07:32:16.539Z,98.00
2017-11-08T07:34:44.473Z,98.10
2017-11-08T07:37:11.990Z,98.10
2017-11-08T07:39:39.543Z,97.90
2017-11-08T07:42:07.062Z,98.00
2017-11-08T07:44:34.597Z,98.00
2017-11-08T07:47:02.115Z,98.10
2017-11-08T07:49:29.643Z,98.20
2017-11-08T07:51:57.569Z,98.10
2017-11-08T07:54:25.125Z,98.10
2017-11-08T07:56:55.085Z,98.00
2017-11-08T07:59:25.432Z,98.30
2017-11-08T08:01:52.946Z,98.30
2017-11-08T08:04:20.878Z,98.30
2017-11-08T08:06:48.401Z,98.30
2017-11-08T08:09:15.948Z,98.00
2017-11-08T08:11:47.156Z,97.70
2017-11-08T08:14:14.698Z,97.50
2017-11-08T08:16:42.620Z,97.90
2017-11-08T08:19:10.159Z,97.90
2017-11-08T08:21:38.080Z,97.80
2017-11-08T08:24:05.620Z,97.80
2017-11-08T08:26:33.141Z,97.80
2017-11-08T08:29:00.689Z,98.00
2017-11-08T08:31:28.220Z,98.00
2017-11-08T08:33:56.146Z,97.90
2017-11-08T08:36:23.664Z,97.90
2017-11-08T08:38:51.279Z,97.60
2017-11-08T08:41:18.816Z,97.80
2017-11-08T08:43:46.383Z,97.50
2017-11-08T08:46:13.894Z,97.30
2017-11-08T08:48:41.418Z,97.30
2017-11-08T08:51:09.362Z,97.30
2017-11-08T08:53:36.894Z,97.30
2017-11-08T08:56:04.432Z,97.00
2017-11-08T08:58:31.972Z,96.70
2017-11-08T09:00:59.519Z,96.70
2017-11-08T09:03:27.044Z,96.30
2017-11-08T09:05:54.582Z,96.10
2017-11-08T09:08:22.111Z,96.10
2017-11-08T09:10:50.037Z,96.40
2017-11-08T09:13:17.560Z,96.40
2017-11-08T09:15:45.501Z,96.60
2017-11-08T09:18:13.025Z,96.60
2017-11-08T09:20:40.561Z,96.30
2017-11-08T09:23:08.094Z,96.60
2017-11-08T09:25:35.636Z,97.20
2017-11-08T09:28:03.551Z,97.40
2017-11-08T09:30:31.206Z,97.40
2017-11-08T09:32:58.748Z,97.40
2017-11-08T09:35:26.698Z,97.70
2017-11-08T09:37:59.815Z,97.70
2017-11-08T09:43:21.830Z,97.00
2017-11-08T09:45:49.457Z,96.70
2017-11-08T09:48:17.034Z,96.80
2017-11-08T09:50:44.631Z,97.30
2017-11-08T09:53:12.301Z,97.70
2017-11-08T09:55:39.888Z,97.50
2017-11-08T09:58:09.255Z,97.10
2017-11-08T10:00:36.916Z,96.80
2017-11-08T10:03:04.485Z,96.70
2017-11-08T10:05:32.036Z,96.60
2017-11-08T10:07:59.606Z,96.20
2017-11-08T10:10:30.134Z,96.10
2017-11-08T10:13:03.321Z,96.10
2017-11-08T10:15:31.294Z,95.80
2017-11-08T10:17:58.868Z,95.60
2017-11-08T10:20:26.861Z,95.60
2017-11-08T10:23:01.155Z,95.60
2017-11-08T10:25:28.800Z,95.80
2017-11-08T10:27:56.414Z,95.30
2017-11-08T10:30:23.981Z,95.80
2017-11-08T10:32:51.576Z,95.50
2017-11-08T10:35:19.171Z,95.90
2017-11-08T10:37:46.765Z,95.60
2017-11-08T10:40:14.337Z,95.80
2017-11-08T10:42:41.909Z,95.20
2017-11-08T10:45:09.566Z,95.50
2017-11-08T10:47:37.153Z,95.30
2017-11-08T10:50:04.696Z,95.90
2017-11-08T10:52:32.392Z,96.10
2017-11-08T10:54:59.963Z,95.80
2017-11-08T10:57:27.688Z,96.10
2017-11-08T11:00:10.961Z,96.40
2017-11-08T11:02:39.252Z,96.80
2017-11-08T11:05:06.767Z,96.90
2017-11-08T11:07:34.298Z,96.90
2017-11-08T11:10:01.921Z,96.90
2017-11-08T11:12:29.914Z,96.60
2017-11-08T11:14:57.513Z,96.60
2017-11-08T11:17:25.098Z,96.80
2017-11-08T11:19:54.629Z,96.80
2017-11-08T11:22:22.211Z,96.90
2017-11-08T11:24:49.808Z,96.50
2017-11-08T11:27:17.409Z,96.80
2017-11-08T11:29:45.029Z,96.70
2017-11-08T11:32:12.650Z,96.20
2017-11-08T11:34:40.248Z,96.80
2017-11-08T11:37:07.851Z,96.40
2017-11-08T11:39:35.437Z,96.60
2017-11-08T11:42:03.071Z,97.00
2017-11-08T11:44:30.813Z,96.90
2017-11-08T11:46:58.397Z,96.60
2017-11-08T11:49:26.379Z,96.70
2017-11-08T11:51:53.977Z,96.70
2017-11-08T11:54:21.524Z,96.50
2017-11-08T11:56:49.111Z,96.30
2017-11-08T11:59:16.681Z,96.30
2017-11-08T12:01:44.291Z,96.40
2017-11-08T12:04:11.863Z,96.50
2017-11-08T12:06:39.480Z,96.20
2017-11-08T12:09:07.041Z,96.70
2017-11-08T12:11:35.401Z,96.60
2017-11-08T12:14:03.023Z,96.70
2017-11-08T12:16:30.592Z,96.50
2017-11-08T12:18:58.179Z,96.70
2017-11-08T12:21:26.220Z,96.80
2017-11-08T12:23:53.782Z,96.80
2017-11-08T12:26:21.345Z,97.10
2017-11-08T12:28:48.939Z,96.90
2017-11-08T12:31:16.646Z,96.90
2017-11-08T12:33:44.676Z,96.90
2017-11-08T12:36:12.260Z,96.90
2017-11-08T12:38:39.845Z,97.00
2017-11-08T12:41:07.459Z,97.40
2017-11-08T12:43:35.152Z,97.10
2017-11-08T12:46:02.736Z,97.30
2017-11-08T12:48:30.346Z,97.50
2017-11-08T12:50:58.027Z,97.50
2017-11-08T12:53:25.648Z,97.40
2017-11-08T12:55:53.233Z,96.70
2017-11-08T12:58:20.845Z,97.00
2017-11-08T13:00:48.432Z,97.10
2017-11-08T13:03:15.999Z,97.20
2017-11-08T13:05:43.580Z,97.50
2017-11-08T13:08:11.192Z,97.40
2017-11-08T13:10:44.664Z,97.60
2017-11-08T13:13:12.254Z,97.50
2017-11-08T13:15:42.201Z,97.50
2017-11-08T13:18:09.794Z,97.50
2017-11-08T13:20:37.351Z,97.60
2017-11-08T13:23:05.027Z,97.20
2017-11-08T13:25:32.657Z,97.50
2017-11-08T13:28:00.255Z,97.50
2017-11-08T13:30:27.809Z,97.40
2017-11-08T13:32:55.443Z,97.20
2017-11-08T13:35:23.025Z,97.30
2017-11-08T13:37:50.668Z,97.40
2017-11-08T13:40:18.257Z,97.50
2017-11-08T13:42:45.836Z,97.50
2017-11-08T13:45:13.414Z,97.30
2017-11-08T13:47:41.022Z,97.60
2017-11-08T13:50:08.605Z,97.50
2017-11-08T13:52:36.180Z,97.40
2017-11-08T13:55:03.769Z,97.60
2017-11-08T13:57:31.321Z,97.50
2017-11-08T13:59:58.888Z,97.50
2017-11-08T14:02:26.516Z,97.30
2017-11-08T14:04:54.188Z,97.50
2017-11-08T14:07:21.739Z,97.50
2017-11-08T14:09:49.312Z,97.30
2017-11-08T14:12:16.866Z,97.40
2017-11-08T14:14:44.931Z,97.30
2017-11-08T14:17:12.523Z,97.30
2017-11-08T14:19:40.521Z,97.10
2017-11-08T14:22:08.096Z,97.10
2017-11-08T14:24:35.741Z,97.20
2017-11-08T14:27:03.732Z,96.90
2017-11-08T14:29:33.520Z,96.90
2017-11-08T14:32:01.076Z,96.90
2017-11-08T14:34:28.664Z,97.00
2017-11-08T14:36:56.276Z,97.20
2017-11-08T14:39:24.236Z,97.40
2017-11-08T14:41:52.244Z,97.10
2017-11-08T14:44:19.828Z,97.10
2017-11-08T14:46:47.395Z,97.20
2017-11-08T14:49:15.015Z,97.30
2017-11-08T14:51:42.579Z,97.30
2017-11-08T14:54:10.181Z,97.30
2017-11-08T14:56:37.776Z,97.30
2017-11-08T14:59:05.765Z,96.90
2017-11-08T15:01:33.727Z,96.80
2017-11-08T15:04:01.353Z,96.80
2017-11-08T15:06:28.946Z,96.80
2017-11-08T15:08:56.533Z,97.00
2017-11-08T15:11:24.153Z,97.00
2017-11-08T15:13:51.719Z,96.90
2017-11-08T15:16:19.307Z,97.00
2017-11-08T15:18:46.908Z,97.10
2017-11-08T15:21:14.513Z,97.10
2017-11-08T15:23:42.152Z,96.80
2017-11-08T15:26:09.754Z,97.00
2017-11-08T15:28:37.340Z,96.50
2017-11-08T15:31:05.861Z,96.80
2017-11-08T15:33:35.364Z,96.70
2017-11-08T15:36:02.977Z,96.90
2017-11-08T15:38:30.563Z,97.10
2017-11-08T15:40:58.135Z,97.10
2017-11-08T15:43:26.496Z,97.20
2017-11-08T15:45:54.089Z,97.30
2017-11-08T15:48:21.669Z,97.10
2017-11-08T15:50:49.287Z,97.00
2017-11-08T15:53:16.858Z,97.00
2017-11-08T15:55:44.570Z,97.00
2017-11-08T15:58:12.168Z,96.80
2017-11-08T16:00:39.748Z,96.90
2017-11-08T16:03:12.113Z,97.00
2017-11-08T16:05:39.743Z,96.50
2017-11-08T16:08:07.680Z,96.90
2017-11-08T16:10:35.253Z,96.90
2017-11-08T16:13:05.649Z,97.10
2017-11-08T16:15:34.222Z,97.20
2017-11-08T16:18:01.794Z,97.10
2017-11-08T16:20:29.786Z,97.00
2017-11-08T16:22:57.909Z,96.50
2017-11-08T16:25:25.537Z,96.50
2017-11-08T16:27:53.155Z,96.10
2017-11-08T16:30:20.833Z,96.30
2017-11-08T16:32:48.400Z,96.30
2017-11-08T16:35:15.965Z,96.50
2017-11-08T16:37:43.556Z,96.30
2017-11-08T16:40:11.123Z,96.50
2017-11-08T16:42:38.730Z,96.50
2017-11-08T16:45:06.346Z,96.40
2017-11-08T16:47:33.939Z,96.50
2017-11-08T16:50:01.530Z,96.50
2017-11-08T16:52:29.172Z,96.30
2017-11-08T16:54:56.727Z,96.50
2017-11-08T16:57:24.328Z,96.70
2017-11-08T16:59:51.911Z,96.70
2017-11-08T17:02:19.512Z,96.80
2017-11-08T17:04:47.065Z,96.50
2017-11-08T17:07:14.718Z,96.50
2017-11-08T17:09:42.284Z,96.50
2017-11-08T17:12:09.892Z,96.50
2017-11-08T17:14:37.565Z,96.40
2017-11-08T17:17:05.133Z,96.30
2017-11-08T17:19:32.727Z,96.20
2017-11-08T17:22:02.333Z,96.30
2017-11-08T17:24:29.888Z,96.40
2017-11-08T17:26:57.494Z,96.50
2017-11-08T17:29:25.083Z,96.70
2017-11-08T17:31:53.102Z,96.90
2017-11-08T17:34:20.673Z,96.90
2017-11-08T17:36:48.252Z,97.00
2017-11-08T17:39:15.796Z,97.00
2017-11-08T17:41:43.804Z,97.20
2017-11-08T17:44:11.382Z,97.20
2017-11-08T17:46:38.982Z,97.10
2017-11-08T17:49:06.561Z,97.20
2017-11-08T17:51:34.150Z,97.30
2017-11-08T17:54:02.191Z,97.30
2017-11-08T17:56:29.749Z,97.30
2017-11-08T17:58:57.367Z,97.40
2017-11-08T18:01:24.932Z,97.40
2017-11-08T18:03:52.513Z,97.40
2017-11-08T18:06:20.088Z,97.40
2017-11-08T18:08:47.647Z,97.40
2017-11-08T18:11:15.189Z,97.50
2017-11-08T18:13:42.771Z,97.40
2017-11-08T18:16:10.338Z,97.50
2017-11-08T18:18:37.914Z,97.60
2017-11-08T18:21:05.481Z,97.70
2017-11-08T18:23:33.063Z,97.70
2017-11-08T18:26:00.673Z,97.80
2017-11-08T18:28:28.243Z,97.80
2017-11-08T18:30:55.864Z,97.80
2017-11-08T18:33:23.438Z,97.80
2017-11-08T18:35:51.017Z,97.80
2017-11-08T18:38:18.607Z,97.90
2017-11-08T18:40:46.235Z,98.00
2017-11-08T18:43:13.848Z,98.10
2017-11-08T18:45:41.423Z,98.10
2017-11-08T18:48:09.022Z,98.10
2017-11-08T18:50:36.621Z,98.10
2017-11-08T18:53:04.240Z,98.20
2017-11-08T18:55:31.864Z,98.10
2017-11-08T18:57:59.498Z,98.20
2017-11-08T19:00:27.123Z,98.10
2017-11-08T19:02:54.755Z,98.00
2017-11-08T19:05:22.331Z,98.20
2017-11-08T19:07:49.909Z,98.30
2017-11-08T19:10:17.498Z,98.30
2017-11-08T19:12:45.480Z,98.20
2017-11-08T19:15:13.055Z,98.20
2017-11-08T19:17:40.650Z,98.30
2017-11-08T19:20:08.642Z,98.30
2017-11-08T19:22:36.209Z,98.30
2017-11-08T19:25:03.822Z,98.30
2017-11-08T19:27:31.370Z,98.50
2017-11-08T19:29:58.973Z,98.50
2017-11-08T19:32:26.582Z,98.50
2017-11-08T19:34:54.580Z,98.70
2017-11-08T19:37:22.118Z,98.60
2017-11-08T19:39:49.700Z,98.60
2017-11-08T19:42:17.293Z,98.50
2017-11-08T19:44:44.904Z,98.60
2017-11-08T19:47:12.497Z,98.60
2017-11-08T19:49:40.092Z,98.40
2017-11-08T19:52:07.678Z,98.50
2017-11-08T19:54:35.274Z,98.50
2017-11-08T19:57:02.909Z,98.40
2017-11-08T19:59:30.538Z,98.40
2017-11-08T20:01:58.155Z,98.30
2017-11-08T20:04:25.780Z,98.30
2017-11-08T20:06:53.333Z,98.30
2017-11-08T20:09:20.922Z,98.10
2017-11-08T20:11:48.480Z,98.10
2017-11-08T20:14:16.064Z,98.20
2017-11-08T20:16:43.675Z,98.10
2017-11-08T20:19:11.361Z,97.90
2017-11-08T20:21:38.933Z,97.90
2017-11-08T20:24:06.553Z,97.90
2017-11-08T20:26:34.119Z,97.80
2017-11-08T20:29:01.730Z,97.80
2017-11-08T20:31:29.354Z,98.00
2017-11-08T20:33:56.977Z,98.00
2017-11-08T20:36:24.559Z,97.90
2017-11-08T20:38:52.175Z,97.80
2017-11-08T20:41:19.793Z,97.80
2017-11-08T20:43:47.359Z,97.70
2017-11-08T20:46:14.941Z,97.80
2017-11-08T20:48:42.580Z,97.90
2017-11-08T20:51:10.198Z,97.70
2017-11-08T20:53:37.764Z,97.90
2017-11-08T20:56:05.328Z,98.00
2017-11-08T20:58:32.911Z,98.00
2017-11-08T21:01:00.503Z,98.00
2017-11-08T21:03:28.075Z,97.80
2017-11-08T21:05:55.705Z,97.80
2017-11-08T21:08:23.295Z,97.70
2017-11-08T21:10:50.864Z,97.80
2017-11-08T21:13:18.454Z,97.80
2017-11-08T21:15:46.036Z,97.70
2017-11-08T21:18:13.648Z,97.70
2017-11-08T21:20:41.243Z,97.70
2017-11-08T21:23:08.831Z,97.80
2017-11-08T21:25:36.413Z,98.00
2017-11-08T21:28:03.993Z,97.90
2017-11-08T21:30:31.577Z,98.00
2017-11-08T21:32:59.174Z,98.10
2017-11-08T21:35:26.781Z,98.10
2017-11-08T21:37:54.404Z,98.10
2017-11-08T21:40:21.965Z,98.10
2017-11-08T21:42:49.586Z,98.10
2017-11-08T21:45:17.195Z,98.10
2017-11-08T21:47:44.769Z,98.00
2017-11-08T21:50:12.397Z,98.00
2017-11-08T21:52:39.985Z,97.90
2017-11-08T21:55:07.581Z,97.90
2017-11-08T21:57:35.204Z,97.70
2017-11-08T22:00:02.807Z,97.60
2017-11-08T22:02:30.456Z,97.70
2017-11-08T22:04:58.040Z,97.70
2017-11-08T22:07:25.641Z,97.70
2017-11-08T22:09:53.227Z,97.70
2017-11-08T22:12:20.810Z,97.60
2017-11-08T22:14:48.411Z,97.60
2017-11-08T22:17:16.409Z,97.60
2017-11-08T22:19:44.384Z,97.60
2017-11-08T22:22:12.359Z,97.50
2017-11-08T22:24:39.946Z,97.50
2017-11-08T22:27:07.515Z,97.50
2017-11-08T22:29:35.115Z,97.70
2017-11-08T22:32:02.722Z,97.90
2017-11-08T22:34:34.268Z,97.90
2017-11-08T22:37:01.892Z,97.80
2017-11-08T22:39:29.879Z,98.00
2017-11-08T22:41:57.457Z,98.00
2017-11-08T22:44:25.097Z,97.90
2017-11-08T22:46:52.677Z,98.10
2017-11-08T22:49:20.717Z,97.80
2017-11-08T22:51:48.337Z,97.80
2017-11-08T22:54:16.356Z,97.80
2017-11-08T22:56:43.968Z,97.80
2017-11-08T22:59:11.621Z,97.80
2017-11-08T23:01:39.210Z,97.70
2017-11-08T23:04:06.810Z,97.70
2017-11-08T23:06:34.474Z,97.80
2017-11-08T23:09:02.519Z,97.90
2017-11-08T23:11:30.125Z,97.90
2017-11-08T23:13:57.733Z,97.80
2017-11-08T23:16:25.325Z,97.90
2017-11-08T23:18:52.909Z,98.00
2017-11-08T23:21:20.529Z,98.10
2017-11-08T23:23:48.085Z,98.10
2017-11-08T23:26:15.721Z,98.10
2017-11-08T23:28:43.269Z,98.20
2017-11-08T23:31:10.916Z,98.10
2017-11-08T23:33:38.480Z,98.00
2017-11-08T23:36:06.253Z,97.90
2017-11-08T23:38:33.829Z,97.80
2017-11-08T23:41:01.403Z,97.90
2017-11-08T23:43:29.027Z,97.90
2017-11-08T23:45:56.644Z,97.90
2017-11-08T23:48:24.241Z,98.00
2017-11-08T23:50:51.822Z,98.20
2017-11-08T23:53:19.805Z,98.30
2017-11-08T23:55:47.363Z,98.30
2017-11-08T23:58:14.922Z,98.50
